Time;durP1;ratioP1;P1;durP2;ratioP2;P2;SDS_P1;SDS_P2;PMS_P1;PMS_P2;Temp;Humidity;BMP_temperature;BMP_pressure;BME280_temperature;BME280_humidity;BME280_pressure;Samples;Min_cycle;Max_cycle;Signal;HPM_P1;HPM_P2
2023/10/26 00:00:18;;;;;;;;;;;;;;;15.09;100.00;98521.22;5020071;28;19917;-80
2023/10/26 00:02:43;;;;;;;;;;;;;;;15.41;100.00;98540.41;5030208;28;19921;-80
2023/10/26 00:05:08;;;;;;;;;;;;;;;15.58;100.00;98535.28;5013617;28;19949;-81
2023/10/26 00:07:34;;;;;;;;;;;;;;;15.63;100.00;98531.28;5014301;28;19960;-80
2023/10/26 00:09:59;;;;;;;;;;;;;;;15.55;100.00;98534.03;5014301;28;19969;-80
2023/10/26 00:12:24;;;;;;;;;;;;;;;15.53;100.00;98533.63;5029655;28;19967;-80
2023/10/26 00:14:49;;;;;;;;;;;;;;;15.37;100.00;98533.91;5026301;28;19924;-81
2023/10/26 00:17:15;;;;;;;;;;;;;;;15.42;100.00;98539.19;5016573;28;19981;-81
2023/10/26 00:19:40;;;;;;;;;;;;;;;15.47;100.00;98523.13;5014627;28;20008;-80
2023/10/26 00:22:05;;;;;;;;;;;;;;;14.80;100.00;98537.03;5013005;28;19971;-81
2023/10/26 00:24:31;;;;;;;;;;;;;;;14.50;100.00;98540.69;5013244;28;19921;-80
2023/10/26 00:26:58;;;;;;;;;;;;;;;14.87;100.00;98542.72;5018508;28;20284;-81
2023/10/26 00:29:23;;;;;;;;;;;;;;;15.06;100.00;98532.44;5017349;28;19922;-80
2023/10/26 00:31:49;;;;;;;;;;;;;;;15.08;100.00;98535.66;5031083;28;19940;-81
2023/10/26 00:34:14;;;;;;;;;;;;;;;15.11;100.00;98537.72;5033585;28;19917;-81
2023/10/26 00:36:39;;;;;;;;;;;;;;;15.23;100.00;98537.44;5032017;28;19924;-81
2023/10/26 00:39:05;;;;;;;;;;;;;;;15.29;100.00;98543.50;5033262;28;19919;-81
2023/10/26 00:41:31;;;;;;;;;;;;;;;14.76;100.00;98533.38;5033588;28;20403;-80
2023/10/26 00:43:56;;;;;;;;;;;;;;;14.79;100.00;98530.59;5049121;28;19920;-80
2023/10/26 00:46:21;;;;;;;;;;;;;;;15.07;100.00;98517.97;5032881;28;19913;-80
2023/10/26 00:48:47;;;;;;;;;;;;;;;15.25;100.00;98506.84;5028276;28;19993;-81
2023/10/26 00:51:12;;;;;;;;;;;;;;;15.36;100.00;98511.78;5012493;28;19925;-80
2023/10/26 00:53:38;;;;;;;;;;;;;;;15.27;100.00;98504.47;5014782;28;20385;-81
2023/10/26 00:56:04;;;;;;;;;;;;;;;15.23;100.00;98500.81;5031307;28;20312;-80
2023/10/26 00:58:31;;;;;;;;;;;;;;;14.95;100.00;98504.19;5028124;28;19974;-80
2023/10/26 01:00:56;;;;;;;;;;;;;;;15.20;100.00;98497.97;5032502;28;19921;-80
2023/10/26 01:03:23;;;;;;;;;;;;;;;15.19;100.00;98491.50;5032101;28;20457;-80
2023/10/26 01:05:48;;;;;;;;;;;;;;;15.17;100.00;98499.53;5014377;28;19920;-80
2023/10/26 01:08:14;;;;;;;;;;;;;;;15.25;100.00;98497.59;5031562;28;19946;-80
2023/10/26 01:10:39;;;;;;;;;;;;;;;15.19;100.00;98491.50;5032405;28;19945;-80
2023/10/26 01:13:04;;;;;;;;;;;;;;;14.77;100.00;98489.94;5027159;28;20408;-80
2023/10/26 01:15:30;;;;;;;;;;;;;;;14.56;100.00;98500.56;5012595;28;19913;-80
2023/10/26 01:17:55;;;;;;;;;;;;;;;14.84;100.00;98487.19;5024145;28;19917;-80
2023/10/26 01:20:20;;;;;;;;;;;;;;;14.90;100.00;98494.09;5029291;28;20399;-80
2023/10/26 01:22:46;;;;;;;;;;;;;;;15.06;100.00;98493.84;5012303;28;19980;-80
2023/10/26 01:25:11;;;;;;;;;;;;;;;15.08;100.00;98499.88;5012235;28;19924;-80
2023/10/26 01:27:39;;;;;;;;;;;;;;;15.07;100.00;98494.63;5027183;28;19917;-80
2023/10/26 01:30:05;;;;;;;;;;;;;;;15.16;100.00;98509.19;5012289;28;20062;-80
2023/10/26 01:32:30;;;;;;;;;;;;;;;15.19;100.00;98519.66;5012379;28;19957;-80
2023/10/26 01:34:56;;;;;;;;;;;;;;;14.55;100.00;98520.66;5026912;28;19924;-79
2023/10/26 01:37:21;;;;;;;;;;;;;;;14.67;100.00;98502.69;5027846;28;19917;-80
2023/10/26 01:39:46;;;;;;;;;;;;;;;14.95;100.00;98515.47;5017145;28;19917;-81
2023/10/26 01:42:12;;;;;;;;;;;;;;;15.12;100.00;98505.56;5028254;28;19944;-81
2023/10/26 01:44:38;;;;;;;;;;;;;;;14.50;100.00;98523.81;5028882;28;19992;-80
2023/10/26 01:47:04;;;;;;;;;;;;;;;14.52;100.00;98510.19;5012292;28;19918;-80
2023/10/26 01:49:29;;;;;;;;;;;;;;;14.74;100.00;98514.88;4966637;28;1849097;-81
2023/10/26 01:51:54;;;;;;;;;;;;;;;14.05;100.00;98516.06;5013523;28;19917;-81
2023/10/26 01:54:20;;;;;;;;;;;;;;;14.44;100.00;98503.66;5024182;28;19917;-81
2023/10/26 01:56:45;;;;;;;;;;;;;;;14.67;100.00;98509.13;5031293;28;20376;-82
2023/10/26 01:59:10;;;;;;;;;;;;;;;14.78;100.00;98494.38;5031769;28;19924;-80
2023/10/26 02:01:36;;;;;;;;;;;;;;;14.83;100.00;98496.81;5031271;28;20305;-80
2023/10/26 02:04:01;;;;;;;;;;;;;;;14.90;100.00;98499.72;5023197;28;19966;-80
2023/10/26 02:06:26;;;;;;;;;;;;;;;14.98;100.00;98492.97;5031313;28;19966;-80
2023/10/26 02:08:51;;;;;;;;;;;;;;;14.96;100.00;98497.38;5023602;28;19917;-78
2023/10/26 02:11:17;;;;;;;;;;;;;;;14.95;100.00;98504.97;5031261;28;19979;-80
2023/10/26 02:13:42;;;;;;;;;;;;;;;14.95;100.00;98490.91;5025547;28;19932;-80
2023/10/26 02:16:07;;;;;;;;;;;;;;;14.90;100.00;98482.00;5032157;28;20012;-81
2023/10/26 02:18:33;;;;;;;;;;;;;;;14.41;100.00;98505.22;5030239;28;19921;-81
2023/10/26 02:21:00;;;;;;;;;;;;;;;13.86;100.00;98481.25;5016283;28;19929;-80
2023/10/26 02:23:25;;;;;;;;;;;;;;;14.23;100.00;98476.06;5017435;28;19917;-79
2023/10/26 02:25:51;;;;;;;;;;;;;;;14.23;100.00;98488.16;5015174;28;19924;-79
2023/10/26 02:28:16;;;;;;;;;;;;;;;14.50;100.00;98471.16;5030176;28;19917;-79
2023/10/26 02:30:47;;;;;;;;;;;;;;;14.44;100.00;98465.06;5031836;28;19943;-78
2023/10/26 02:33:13;;;;;;;;;;;;;;;14.45;100.00;98460.25;5021062;28;19921;-79
2023/10/26 02:35:39;;;;;;;;;;;;;;;14.42;100.00;98495.59;5022151;28;19917;-81
2023/10/26 02:38:04;;;;;;;;;;;;;;;14.41;100.00;98499.59;5026381;28;19940;-81
2023/10/26 02:40:30;;;;;;;;;;;;;;;14.58;100.00;98505.81;5032235;28;19913;-81
2023/10/26 02:42:55;;;;;;;;;;;;;;;14.76;100.00;98497.56;5023390;28;19921;-80
2023/10/26 02:45:20;;;;;;;;;;;;;;;14.39;100.00;98487.13;5027571;28;19917;-81
2023/10/26 02:47:45;;;;;;;;;;;;;;;14.42;100.00;98489.97;5025681;28;19917;-81
2023/10/26 02:50:11;;;;;;;;;;;;;;;14.56;100.00;98488.50;5016066;28;19928;-80
2023/10/26 02:52:37;;;;;;;;;;;;;;;14.49;100.00;98488.44;5026128;28;19927;-80
2023/10/26 02:55:03;;;;;;;;;;;;;;;14.21;100.00;98484.09;5026849;28;19939;-80
2023/10/26 02:57:29;;;;;;;;;;;;;;;14.26;100.00;98476.13;5018832;28;19918;-80
2023/10/26 02:59:54;;;;;;;;;;;;;;;14.31;100.00;98474.97;5011684;28;20377;-80
2023/10/26 03:02:19;;;;;;;;;;;;;;;13.73;100.00;98486.31;5013780;28;19921;-80
2023/10/26 03:04:44;;;;;;;;;;;;;;;13.84;100.00;98483.66;5019602;28;19917;-80
2023/10/26 03:07:10;;;;;;;;;;;;;;;14.16;100.00;98482.44;5029214;28;19913;-79
2023/10/26 03:09:36;;;;;;;;;;;;;;;14.33;100.00;98481.03;5011645;28;19924;-81
2023/10/26 03:12:01;;;;;;;;;;;;;;;14.45;100.00;98472.31;5019503;28;19914;-80
2023/10/26 03:14:28;;;;;;;;;;;;;;;14.52;100.00;98490.47;5012923;28;19917;-81
2023/10/26 03:16:53;;;;;;;;;;;;;;;14.46;100.00;98490.81;5011664;28;19987;-81
2023/10/26 03:19:18;;;;;;;;;;;;;;;14.24;100.00;98466.44;5011233;28;19917;-81
2023/10/26 03:21:44;;;;;;;;;;;;;;;13.95;100.00;98489.44;5013903;28;19940;-80
2023/10/26 03:24:09;;;;;;;;;;;;;;;13.92;100.00;98469.69;5022309;28;19913;-80
2023/10/26 03:26:34;;;;;;;;;;;;;;;13.97;100.00;98469.34;5031920;28;19917;-76
2023/10/26 03:29:00;;;;;;;;;;;;;;;14.02;100.00;98480.28;5030167;28;19913;-75
2023/10/26 03:31:25;;;;;;;;;;;;;;;14.27;100.00;98479.75;5028753;28;19995;-74
2023/10/26 03:33:50;;;;;;;;;;;;;;;14.16;100.00;98483.25;5030258;28;19917;-79
2023/10/26 03:36:16;;;;;;;;;;;;;;;13.81;100.00;98469.53;5027989;28;19921;-76
2023/10/26 03:38:42;;;;;;;;;;;;;;;14.04;100.00;98477.88;5031327;28;19917;-74
2023/10/26 03:41:08;;;;;;;;;;;;;;;14.19;100.00;98473.25;5016963;28;19918;-75
2023/10/26 03:43:33;;;;;;;;;;;;;;;14.30;100.00;98470.53;5011465;28;20304;-76
2023/10/26 03:45:58;;;;;;;;;;;;;;;14.38;100.00;98461.00;5010911;28;19914;-75
2023/10/26 03:48:24;;;;;;;;;;;;;;;14.32;100.00;98468.16;5014797;28;19991;-76
2023/10/26 03:50:49;;;;;;;;;;;;;;;14.38;100.00;98458.19;5019925;28;19924;-75
2023/10/26 03:53:14;;;;;;;;;;;;;;;14.15;100.00;98441.44;5016102;28;20015;-75
2023/10/26 03:55:39;;;;;;;;;;;;;;;13.95;100.00;98436.03;5011795;28;19969;-77
2023/10/26 03:58:05;;;;;;;;;;;;;;;13.99;100.00;98422.81;5030696;28;19932;-76
2023/10/26 04:00:30;;;;;;;;;;;;;;;14.04;100.00;98424.47;5030352;28;19917;-78
2023/10/26 04:02:55;;;;;;;;;;;;;;;14.13;100.00;98424.97;5028678;28;20395;-77
2023/10/26 04:05:21;;;;;;;;;;;;;;;14.31;100.00;98441.22;5034507;28;20341;-77
2023/10/26 04:07:46;;;;;;;;;;;;;;;13.80;100.00;98453.88;5034527;28;19920;-76
2023/10/26 04:10:12;;;;;;;;;;;;;;;13.68;100.00;98452.94;5034147;28;19917;-75
2023/10/26 04:12:37;;;;;;;;;;;;;;;13.97;100.00;98453.31;5033642;28;19924;-76
2023/10/26 04:15:05;;;;;;;;;;;;;;;14.12;100.00;98461.91;5033514;28;20039;-76
2023/10/26 04:17:31;;;;;;;;;;;;;;;14.17;100.00;98467.19;5031559;28;19923;-78
2023/10/26 04:19:56;;;;;;;;;;;;;;;14.14;100.00;98476.38;5027567;28;20008;-78
2023/10/26 04:22:22;;;;;;;;;;;;;;;13.75;100.00;98488.75;5029338;28;19944;-77
2023/10/26 04:24:48;;;;;;;;;;;;;;;14.01;100.00;98487.09;5029862;28;19917;-76
2023/10/26 04:27:13;;;;;;;;;;;;;;;13.98;100.00;98482.22;5020212;28;20423;-72
2023/10/26 04:29:38;;;;;;;;;;;;;;;14.11;100.00;98471.53;5027860;28;19917;-76
2023/10/26 04:32:04;;;;;;;;;;;;;;;14.09;100.00;98471.13;5024478;28;19956;-76
2023/10/26 04:34:29;;;;;;;;;;;;;;;14.15;100.00;98461.13;5018436;28;20342;-75
2023/10/26 04:36:54;;;;;;;;;;;;;;;14.25;100.00;98470.91;5011963;28;20036;-76
2023/10/26 04:39:22;;;;;;;;;;;;;;;13.98;100.00;98480.22;5022200;28;19975;-74
2023/10/26 04:41:47;;;;;;;;;;;;;;;14.04;100.00;98459.00;5030268;28;19921;-74
2023/10/26 04:44:13;;;;;;;;;;;;;;;14.08;100.00;98461.06;5029761;28;19927;-76
2023/10/26 04:46:38;;;;;;;;;;;;;;;13.74;100.00;98456.22;5029028;28;19963;-73
2023/10/26 04:49:04;;;;;;;;;;;;;;;13.97;100.00;98458.09;5010851;28;19984;-77
2023/10/26 04:51:29;;;;;;;;;;;;;;;13.94;100.00;98447.63;5011237;28;19925;-78
2023/10/26 04:53:55;;;;;;;;;;;;;;;14.01;100.00;98456.16;5011538;28;19921;-78
2023/10/26 04:56:20;;;;;;;;;;;;;;;14.12;100.00;98471.16;5016650;28;19963;-81
2023/10/26 04:58:48;;;;;;;;;;;;;;;13.71;100.00;98469.03;5030086;28;19925;-73
2023/10/26 05:01:13;;;;;;;;;;;;;;;13.65;100.00;98481.00;5029588;28;19944;-73
2023/10/26 05:03:38;;;;;;;;;;;;;;;14.01;100.00;98487.09;5030146;28;20383;-80
2023/10/26 05:06:04;;;;;;;;;;;;;;;14.12;100.00;98495.66;5033004;28;19939;-77
2023/10/26 05:08:29;;;;;;;;;;;;;;;14.23;100.00;98492.94;5028952;28;19917;-77
2023/10/26 05:10:54;;;;;;;;;;;;;;;14.21;100.00;98501.78;5029485;28;19940;-77
2023/10/26 05:13:21;;;;;;;;;;;;;;;14.29;100.00;98500.66;5032411;28;19929;-77
2023/10/26 05:15:46;;;;;;;;;;;;;;;14.38;100.00;98494.75;5031971;28;19914;-77
2023/10/26 05:18:12;;;;;;;;;;;;;;;14.18;100.00;98496.94;5012665;28;19991;-77
2023/10/26 05:20:37;;;;;;;;;;;;;;;14.38;100.00;98488.31;5019190;28;19988;-77
2023/10/26 05:23:03;;;;;;;;;;;;;;;14.45;100.00;98491.22;5032829;28;19924;-77
2023/10/26 05:25:28;;;;;;;;;;;;;;;13.73;100.00;98496.75;5033072;28;19919;-77
2023/10/26 05:27:54;;;;;;;;;;;;;;;13.65;100.00;98507.06;5031176;28;19920;-77
2023/10/26 05:30:19;;;;;;;;;;;;;;;13.81;100.00;98506.06;5027434;28;19975;-76
2023/10/26 05:32:44;;;;;;;;;;;;;;;14.11;100.00;98497.63;5031282;28;19917;-77
2023/10/26 05:35:09;;;;;;;;;;;;;;;14.07;100.00;98507.25;5032976;28;19917;-77
2023/10/26 05:37:35;;;;;;;;;;;;;;;14.01;100.00;98518.81;5031703;28;19968;-77
2023/10/26 05:40:01;;;;;;;;;;;;;;;14.13;100.00;98523.41;5027122;28;19921;-77
2023/10/26 05:42:26;;;;;;;;;;;;;;;14.21;100.00;98524.28;5027700;28;19932;-77
2023/10/26 05:44:53;;;;;;;;;;;;;;;14.29;100.00;98531.59;5014106;28;19944;-77
2023/10/26 05:47:19;;;;;;;;;;;;;;;14.32;100.00;98532.84;5027764;28;19917;-77
2023/10/26 05:49:45;;;;;;;;;;;;;;;14.24;100.00;98545.19;5031550;28;19928;-78
2023/10/26 05:52:10;;;;;;;;;;;;;;;14.27;100.00;98544.44;5030027;28;20004;-77
2023/10/26 05:54:35;;;;;;;;;;;;;;;14.34;100.00;98550.16;5028415;28;19917;-77
2023/10/26 05:57:00;;;;;;;;;;;;;;;14.51;100.00;98543.13;5031716;28;20388;-77
2023/10/26 05:59:26;;;;;;;;;;;;;;;14.62;100.00;98548.06;5025983;28;19921;-77
2023/10/26 06:01:51;;;;;;;;;;;;;;;14.64;100.00;98560.56;5028571;28;19971;-75
2023/10/26 06:04:18;;;;;;;;;;;;;;;14.79;100.00;98558.75;5016865;28;19921;-75
2023/10/26 06:06:43;;;;;;;;;;;;;;;14.60;100.00;98551.28;5009899;28;19941;-75
2023/10/26 06:09:10;;;;;;;;;;;;;;;14.57;100.00;98557.66;5009877;28;20408;-74
2023/10/26 06:11:35;;;;;;;;;;;;;;;14.52;100.00;98555.97;5020037;28;19917;-78
2023/10/26 06:14:01;;;;;;;;;;;;;;;14.59;100.00;98570.16;5023226;28;19917;-73
2023/10/26 06:16:26;;;;;;;;;;;;;;;14.29;100.00;98564.56;5020031;28;20427;-74
2023/10/26 06:18:51;;;;;;;;;;;;;;;14.63;100.00;98553.31;5018063;28;20000;-74
2023/10/26 06:21:17;;;;;;;;;;;;;;;14.67;100.00;98567.44;5028213;28;19943;-74
2023/10/26 06:23:42;;;;;;;;;;;;;;;14.31;100.00;98563.00;5020749;28;19917;-73
2023/10/26 06:26:07;;;;;;;;;;;;;;;14.63;100.00;98564.56;5031174;28;19990;-73
2023/10/26 06:28:32;;;;;;;;;;;;;;;14.86;100.00;98570.06;5009711;28;19932;-73
2023/10/26 06:31:08;;;;;;;;;;;;;;;15.03;100.00;98556.56;5023311;28;19964;-73
2023/10/26 06:33:34;;;;;;;;;;;;;;;14.79;100.00;98570.00;5025277;28;19922;-74
2023/10/26 06:35:59;;;;;;;;;;;;;;;14.46;100.00;98568.78;5027433;28;19979;-77
2023/10/26 06:38:25;;;;;;;;;;;;;;;14.70;100.00;98573.06;5031492;28;19913;-76
2023/10/26 06:40:50;;;;;;;;;;;;;;;15.00;100.00;98575.03;5029108;28;19963;-74
2023/10/26 06:43:16;;;;;;;;;;;;;;;15.14;100.00;98577.19;5025957;28;19917;-72
2023/10/26 06:45:41;;;;;;;;;;;;;;;15.29;100.00;98568.88;5026777;28;19917;-74
2023/10/26 06:48:06;;;;;;;;;;;;;;;15.19;100.00;98561.91;5025718;28;19976;-73
2023/10/26 06:50:32;;;;;;;;;;;;;;;15.23;100.00;98559.97;5010396;28;19914;-72
2023/10/26 06:52:57;;;;;;;;;;;;;;;14.93;100.00;98557.28;5023609;28;19917;-73
2023/10/26 06:55:22;;;;;;;;;;;;;;;14.99;100.00;98545.25;5031415;28;19970;-71
2023/10/26 06:57:48;;;;;;;;;;;;;;;14.70;100.00;98556.19;5030837;28;19928;-70
2023/10/26 07:00:13;;;;;;;;;;;;;;;14.81;100.00;98563.97;5030054;28;19924;-73
2023/10/26 07:02:38;;;;;;;;;;;;;;;15.01;100.00;98550.50;5021805;28;19921;-71
2023/10/26 07:05:04;;;;;;;;;;;;;;;15.01;100.00;98545.69;5010625;28;19914;-73
2023/10/26 07:07:31;;;;;;;;;;;;;;;15.01;100.00;98528.78;5011129;28;19948;-71
2023/10/26 07:09:57;;;;;;;;;;;;;;;15.35;100.00;98532.69;5011640;28;19917;-70
2023/10/26 07:12:23;;;;;;;;;;;;;;;15.50;100.00;98539.22;5025723;28;20304;-73
2023/10/26 07:14:53;;;;;;;;;;;;;;;15.61;100.00;98539.31;5011093;28;19917;-74
2023/10/26 07:17:19;;;;;;;;;;;;;;;15.22;100.00;98549.06;5026624;28;19929;-74
2023/10/26 07:19:44;;;;;;;;;;;;;;;15.10;100.00;98553.81;5018209;28;19917;-72
2023/10/26 07:22:09;;;;;;;;;;;;;;;15.12;100.00;98554.22;5015779;28;19922;-71
2023/10/26 07:24:35;;;;;;;;;;;;;;;15.16;100.00;98560.72;5009732;28;19927;-72
2023/10/26 07:27:00;;;;;;;;;;;;;;;15.23;100.00;98556.31;5013971;28;20311;-72
2023/10/26 07:29:25;;;;;;;;;;;;;;;14.94;100.00;98559.69;5030228;28;19921;-72
2023/10/26 07:31:51;;;;;;;;;;;;;;;14.91;100.00;98560.47;5029153;28;19913;-72
2023/10/26 07:34:16;;;;;;;;;;;;;;;14.99;100.00;98556.53;5030922;28;19917;-72
2023/10/26 07:36:42;;;;;;;;;;;;;;;15.07;100.00;98545.31;5015568;28;19921;-72
2023/10/26 07:39:07;;;;;;;;;;;;;;;14.93;100.00;98548.81;5015364;28;19944;-72
2023/10/26 07:41:32;;;;;;;;;;;;;;;14.93;100.00;98532.72;5015610;28;20421;-73
2023/10/26 07:43:57;;;;;;;;;;;;;;;14.92;100.00;98533.94;5014927;28;19921;-71
2023/10/26 07:46:23;;;;;;;;;;;;;;;14.99;100.00;98536.00;5017396;28;20412;-72
2023/10/26 07:48:48;;;;;;;;;;;;;;;15.09;100.00;98526.06;5031477;28;20031;-72
2023/10/26 07:51:13;;;;;;;;;;;;;;;15.01;100.00;98513.88;5017188;28;19922;-72
2023/10/26 07:53:39;;;;;;;;;;;;;;;15.10;100.00;98519.22;5029225;28;19991;-72
2023/10/26 07:56:04;;;;;;;;;;;;;;;15.23;100.00;98503.63;5025160;28;19921;-72
2023/10/26 07:58:30;;;;;;;;;;;;;;;15.41;100.00;98505.75;5015852;28;19918;-72
2023/10/26 08:00:56;;;;;;;;;;;;;;;15.47;100.00;98521.13;5031637;28;19917;-72
2023/10/26 08:03:23;;;;;;;;;;;;;;;15.60;100.00;98520.78;5032989;28;20308;-72
2023/10/26 08:06:00;;;;;;;;;;;;;;;15.95;100.00;98522.25;5033390;28;19923;-73
2023/10/26 08:08:26;;;;;;;;;;;;;;;16.12;100.00;98534.81;5032638;28;19913;-73
2023/10/26 08:10:51;;;;;;;;;;;;;;;16.35;100.00;98550.63;5022874;28;19954;-72
2023/10/26 08:13:16;;;;;;;;;;;;;;;16.49;100.00;98544.22;5012699;28;19917;-72
2023/10/26 08:15:42;;;;;;;;;;;;;;;16.57;100.00;98551.53;5029901;28;19917;-73
2023/10/26 08:18:07;;;;;;;;;;;;;;;16.64;100.00;98550.75;5031936;28;19933;-72
2023/10/26 08:20:33;;;;;;;;;;;;;;;16.91;100.00;98556.03;5035316;28;19979;-75
2023/10/26 08:22:58;;;;;;;;;;;;;;;17.23;100.00;98556.09;5019661;28;20439;-72
2023/10/26 08:25:23;;;;;;;;;;;;;;;17.40;100.00;98570.66;5014201;28;19936;-71
2023/10/26 08:27:49;;;;;;;;;;;;;;;17.51;100.00;98565.81;5014946;28;20396;-72
2023/10/26 08:30:15;;;;;;;;;;;;;;;17.42;100.00;98570.25;5017998;28;19924;-72
2023/10/26 08:32:40;;;;;;;;;;;;;;;17.18;100.00;98565.00;5023282;28;20015;-72
2023/10/26 08:35:05;;;;;;;;;;;;;;;17.41;100.00;98560.97;5032251;28;19924;-72
2023/10/26 08:37:30;;;;;;;;;;;;;;;17.69;100.00;98548.03;5026677;28;19917;-72
2023/10/26 08:39:56;;;;;;;;;;;;;;;17.09;100.00;98556.09;5016008;28;20056;-72
2023/10/26 08:42:21;;;;;;;;;;;;;;;17.18;100.00;98552.88;5014385;28;19921;-72
2023/10/26 08:44:47;;;;;;;;;;;;;;;17.06;100.00;98539.97;5016834;28;20396;-71
2023/10/26 08:47:14;;;;;;;;;;;;;;;16.84;100.00;98532.25;5017153;28;19933;-73
2023/10/26 08:49:41;;;;;;;;;;;;;;;17.02;100.00;98539.94;5029763;28;19930;-72
2023/10/26 08:52:08;;;;;;;;;;;;;;;17.15;100.00;98531.09;5015415;28;19917;-74
2023/10/26 08:54:34;;;;;;;;;;;;;;;17.33;100.00;98526.25;5028907;28;20012;-74
2023/10/26 08:57:06;;;;;;;;;;;;;;;17.51;100.00;98514.94;5016638;28;20367;-73
2023/10/26 08:59:31;;;;;;;;;;;;;;;17.51;100.00;98528.25;5031472;28;19985;-74
2023/10/26 09:01:57;;;;;;;;;;;;;;;18.02;100.00;98530.97;5019611;28;20379;-73
2023/10/26 09:04:23;;;;;;;;;;;;;;;18.27;100.00;98528.09;5029391;28;19928;-75
2023/10/26 09:06:49;;;;;;;;;;;;;;;18.41;99.97;98509.44;5016960;28;19925;-73
2023/10/26 09:09:15;;;;;;;;;;;;;;;18.32;100.00;98505.03;5023217;28;19921;-74
2023/10/26 09:11:40;;;;;;;;;;;;;;;18.57;97.59;98512.56;5015999;28;19918;-74
2023/10/26 09:14:32;;;;;;;;;;;;;;;18.64;97.74;98511.72;5016006;28;20320;-76
2023/10/26 09:16:58;;;;;;;;;;;;;;;18.96;97.18;98507.91;5008424;28;20307;-74
2023/10/26 09:19:36;;;;;;;;;;;;;;;19.04;95.19;98497.34;5024059;28;20463;-74
2023/10/26 09:22:02;;;;;;;;;;;;;;;19.22;94.15;98512.19;5010152;28;19983;-73
2023/10/26 09:24:29;;;;;;;;;;;;;;;19.35;93.01;98515.31;5008743;28;19921;-72
2023/10/26 09:26:59;;;;;;;;;;;;;;;19.34;92.67;98510.84;5022508;28;19924;-73
2023/10/26 09:29:38;;;;;;;;;;;;;;;19.22;93.19;98506.53;5023219;28;20285;-72
2023/10/26 09:32:04;;;;;;;;;;;;;;;19.30;93.37;98498.75;5016042;28;19925;-73
2023/10/26 09:34:29;;;;;;;;;;;;;;;19.25;93.74;98496.38;5014062;28;19993;-73
2023/10/26 09:36:58;;;;;;;;;;;;;;;19.20;94.91;98503.31;5015587;28;20375;-73
2023/10/26 09:39:24;;;;;;;;;;;;;;;19.34;93.56;98493.06;5030250;28;19948;-75
2023/10/26 09:41:50;;;;;;;;;;;;;;;19.37;93.97;98480.88;5026040;28;20434;-77
2023/10/26 09:44:15;;;;;;;;;;;;;;;19.36;92.49;98462.25;5030097;28;19924;-74
2023/10/26 09:46:41;;;;;;;;;;;;;;;19.41;91.01;98464.63;5017327;28;19921;-73
2023/10/26 09:49:06;;;;;;;;;;;;;;;19.32;90.81;98456.63;5023065;28;19921;-73
2023/10/26 09:51:32;;;;;;;;;;;;;;;19.44;90.75;98458.13;5022753;28;19925;-73
2023/10/26 09:53:59;;;;;;;;;;;;;;;19.33;91.62;98452.56;5013483;28;19920;-73
2023/10/26 09:56:28;;;;;;;;;;;;;;;19.40;91.54;98445.22;5014775;28;19917;-72
2023/10/26 09:58:54;;;;;;;;;;;;;;;19.46;90.71;98455.69;5018216;28;20412;-72
2023/10/26 10:01:36;;;;;;;;;;;;;;;19.56;90.76;98458.84;5028492;28;19928;-72
2023/10/26 10:04:02;;;;;;;;;;;;;;;19.54;90.11;98458.41;5019675;28;19941;-73
2023/10/26 10:06:43;;;;;;;;;;;;;;;19.70;89.81;98458.66;5012249;28;20511;-73
2023/10/26 10:09:10;;;;;;;;;;;;;;;19.48;91.65;98452.41;5011868;28;20457;-73
2023/10/26 10:11:36;;;;;;;;;;;;;;;19.38;93.02;98431.44;5031477;28;19913;-75
2023/10/26 10:14:01;;;;;;;;;;;;;;;19.62;92.60;98423.09;5029349;28;20009;-78
2023/10/26 10:16:35;;;;;;;;;;;;;;;19.55;91.70;98418.31;5010909;28;20275;-77
2023/10/26 10:19:19;;;;;;;;;;;;;;;19.71;90.25;98409.22;5029489;28;19976;-74
2023/10/26 10:21:45;;;;;;;;;;;;;;;19.65;91.38;98393.88;5015647;28;20328;-71
2023/10/26 10:24:10;;;;;;;;;;;;;;;19.50;92.44;98393.25;5020107;28;19919;-72
2023/10/26 10:26:54;;;;;;;;;;;;;;;19.55;91.78;98403.31;5028688;28;19971;-70
2023/10/26 10:29:21;;;;;;;;;;;;;;;19.74;90.68;98382.84;5028998;28;19932;-73
2023/10/26 10:31:46;;;;;;;;;;;;;;;19.59;90.58;98381.41;5020840;28;19924;-70
2023/10/26 10:34:15;;;;;;;;;;;;;;;19.48;90.94;98376.66;5008982;28;19922;-78
2023/10/26 10:36:59;;;;;;;;;;;;;;;19.35;92.09;98376.38;5017370;28;19917;-79
2023/10/26 10:39:24;;;;;;;;;;;;;;;19.38;92.38;98363.41;5028858;28;20755;-73
2023/10/26 10:41:50;;;;;;;;;;;;;;;19.55;91.19;98352.28;5028934;28;19921;-72
2023/10/26 10:44:16;;;;;;;;;;;;;;;19.50;91.91;98356.41;5025887;28;19917;-71
2023/10/26 10:46:46;;;;;;;;;;;;;;;19.74;91.08;98360.16;5017469;28;20366;-71
2023/10/26 10:49:11;;;;;;;;;;;;;;;19.93;89.34;98352.25;5027523;28;20451;-69
2023/10/26 10:51:43;;;;;;;;;;;;;;;19.89;89.54;98354.28;5017073;28;20016;-70
2023/10/26 10:54:10;;;;;;;;;;;;;;;20.04;88.83;98344.38;5013319;28;19929;-72
2023/10/26 10:56:53;;;;;;;;;;;;;;;20.02;89.53;98351.72;5017815;28;19928;-70
2023/10/26 10:59:20;;;;;;;;;;;;;;;20.10;88.79;98349.56;5017489;28;19976;-70
2023/10/26 11:01:46;;;;;;;;;;;;;;;19.81;89.95;98338.59;5010975;28;19926;-70
2023/10/26 11:04:14;;;;;;;;;;;;;;;19.86;89.53;98338.94;5009149;28;19914;-71
2023/10/26 11:06:47;;;;;;;;;;;;;;;19.87;89.45;98325.53;5021112;28;19929;-72
2023/10/26 11:09:26;;;;;;;;;;;;;;;20.12;88.49;98327.25;5015575;28;19917;-74
2023/10/26 11:11:51;;;;;;;;;;;;;;;20.30;89.09;98324.13;5028233;28;20378;-74
2023/10/26 11:14:20;;;;;;;;;;;;;;;20.12;88.50;98318.72;5031410;28;19917;-71
2023/10/26 11:16:46;;;;;;;;;;;;;;;20.19;87.15;98327.16;5032466;28;19917;-71
2023/10/26 11:19:14;;;;;;;;;;;;;;;20.21;86.65;98330.34;5023746;28;20502;-74
2023/10/26 11:21:40;;;;;;;;;;;;;;;20.48;85.30;98318.16;5018642;28;19932;-73
2023/10/26 11:24:06;;;;;;;;;;;;;;;20.30;86.14;98322.09;5026678;28;20557;-73
2023/10/26 11:26:31;;;;;;;;;;;;;;;20.65;84.51;98315.47;5026027;28;20264;-73
2023/10/26 11:28:57;;;;;;;;;;;;;;;20.88;83.82;98309.81;5025305;28;20450;-73
2023/10/26 11:31:41;;;;;;;;;;;;;;;21.03;82.12;98298.19;5021553;28;19921;-73
2023/10/26 11:34:06;;;;;;;;;;;;;;;;;;5027060;28;20346;-81
2023/10/26 11:36:32;;;;;;;;;;;;;;;21.40;81.91;98293.38;5020054;28;20005;-80
2023/10/26 11:38:57;;;;;;;;;;;;;;;21.38;80.59;98278.00;5020015;28;20317;-81
2023/10/26 11:41:23;;;;;;;;;;;;;;;21.31;79.93;98273.25;5024606;28;19922;-81
2023/10/26 11:43:49;;;;;;;;;;;;;;;21.07;81.39;98261.16;5025068;28;20004;-81
2023/10/26 11:46:14;;;;;;;;;;;;;;;21.16;81.43;98269.88;5023574;28;20376;-81
2023/10/26 11:48:39;;;;;;;;;;;;;;;21.24;81.10;98265.69;5028831;28;19925;-81
2023/10/26 11:51:06;;;;;;;;;;;;;;;20.99;83.10;98246.25;5025967;28;19917;-80
2023/10/26 11:53:32;;;;;;;;;;;;;;;20.90;84.17;98261.88;5024136;28;19914;-81
2023/10/26 11:55:58;;;;;;;;;;;;;;;20.83;85.26;98267.69;5026110;28;19924;-81
2023/10/26 11:58:23;;;;;;;;;;;;;;;20.93;83.12;98248.81;5030956;28;20422;-80
2023/10/26 12:00:48;;;;;;;;;;;;;;;20.96;83.88;98238.63;5028181;28;19963;-81
2023/10/26 12:03:14;;;;;;;;;;;;;;;20.82;84.61;98237.66;5031627;28;20269;-82
2023/10/26 12:05:39;;;;;;;;;;;;;;;20.95;83.22;98226.47;5033162;28;19924;-81
2023/10/26 12:08:05;;;;;;;;;;;;;;;21.02;83.16;98237.69;5026817;28;19921;-81
2023/10/26 12:10:30;;;;;;;;;;;;;;;21.20;80.69;98224.34;5027228;28;19917;-81
2023/10/26 12:12:58;;;;;;;;;;;;;;;21.56;79.88;98237.78;5029957;28;20320;-81
2023/10/26 12:15:23;;;;;;;;;;;;;;;21.73;78.86;98230.13;5031091;28;19920;-81
2023/10/26 12:17:49;;;;;;;;;;;;;;;21.76;78.20;98232.09;5014349;28;19940;-81
2023/10/26 12:20:15;;;;;;;;;;;;;;;21.54;79.01;98248.81;5017302;28;20418;-82
2023/10/26 12:22:40;;;;;;;;;;;;;;;21.60;76.54;98218.63;5033052;28;19921;-82
2023/10/26 12:25:10;;;;;;;;;;;;;;;21.45;76.13;98218.91;5026748;28;19928;-82
2023/10/26 12:27:36;;;;;;;;;;;;;;;21.43;76.45;98227.09;5024053;28;20344;-81
2023/10/26 12:30:02;;;;;;;;;;;;;;;21.76;75.86;98242.69;5012934;28;20012;-82
2023/10/26 12:32:27;;;;;;;;;;;;;;;22.04;76.67;98226.16;5024838;28;19936;-82
2023/10/26 12:34:52;;;;;;;;;;;;;;;22.23;74.75;98219.59;5018786;28;19989;-77